Dzizak, Uzbekistan
Current Conditions -  °F | °C
As of 8:30 AM on Sunday 25 Jan 2015 (Local Time) from UTSS Reporting Station
Haze Haze  
Wind Chill: 21°   Ceiling: 400
Heat Index: 21°   Visibility: 3mi
Dew Point: 19°   Wind: 2mph
Humidity: 93%   Direction: NA
Pressure: 30.48"   Gusts: NA
Location:  40.12°N, 67.83°E
Report Text: UTSS 250330Z VRB02KT 5000 BR OVC004 M06/M07 Q1032 R88/490545NOSIG RMK BASE400
Loading
Personal Weather Stations






























Interactive Weather Map New forecast layout! Learn more

10-Day Weather Forecast

Advertisements
Track Severe Weather on mobile